createdAt,value
2022-11-23T00:01:14.046Z,97197.09
2022-11-23T00:03:41.960Z,97200.81
2022-11-23T00:06:10.053Z,97195.34
2022-11-23T00:08:39.390Z,97191.72
2022-11-23T00:11:07.863Z,97188.78
2022-11-23T00:13:36.358Z,97189.41
2022-11-23T00:16:06.968Z,97192.19
2022-11-23T00:18:34.913Z,97196.13
2022-11-23T00:21:07.308Z,97193.72
2022-11-23T00:23:35.307Z,97191.47
2022-11-23T00:26:04.979Z,97194.03
2022-11-23T00:28:33.010Z,97182.41
2022-11-23T00:31:01.067Z,97198.72
2022-11-23T00:33:29.006Z,97193.75
2022-11-23T00:36:01.344Z,97203.59
2022-11-23T00:38:32.491Z,97194.03
2022-11-23T00:41:02.252Z,97199.63
2022-11-23T00:43:32.274Z,97195.06
2022-11-23T00:46:08.030Z,97200.44
2022-11-23T00:48:36.659Z,97204.53
2022-11-23T00:51:06.323Z,97200.13
2022-11-23T00:53:34.320Z,97203.34
2022-11-23T00:56:02.527Z,97202.81
2022-11-23T00:58:31.982Z,97214.31
2022-11-23T01:01:07.711Z,97219.94
2022-11-23T01:03:37.912Z,97217.22
2022-11-23T01:06:07.485Z,97220.38
2022-11-23T01:08:35.539Z,97216.75
2022-11-23T01:11:05.426Z,97221.16
2022-11-23T01:13:38.181Z,97213.41
2022-11-23T01:16:06.707Z,97206.16
2022-11-23T01:18:34.585Z,97205.88
2022-11-23T01:21:02.999Z,97203.13
2022-11-23T01:23:32.143Z,97195.75
2022-11-23T01:26:06.223Z,97193.97
2022-11-23T01:28:34.758Z,97194.13
2022-11-23T01:31:10.027Z,97195.16
2022-11-23T01:33:38.243Z,97198.81
2022-11-23T01:36:13.514Z,97195.91
2022-11-23T01:38:41.722Z,97187.31
2022-11-23T01:41:13.258Z,97180.44
2022-11-23T01:43:41.412Z,97191.66
2022-11-23T01:46:12.103Z,97188.06
2022-11-23T01:48:44.077Z,97191.53
2022-11-23T01:51:15.924Z,97195.63
2022-11-23T01:53:46.946Z,97199.25
2022-11-23T01:56:18.559Z,97202.16
2022-11-23T01:58:49.432Z,97203.19
2022-11-23T02:01:18.890Z,97206.06
2022-11-23T02:03:49.104Z,97204.25
2022-11-23T02:06:19.299Z,97208.19
2022-11-23T02:08:48.802Z,97202.75
2022-11-23T02:11:17.953Z,97203.03
2022-11-23T02:13:48.715Z,97194.28
2022-11-23T02:16:18.791Z,97199.44
2022-11-23T02:18:49.686Z,97185.66
2022-11-23T02:21:20.818Z,97185.81
2022-11-23T02:23:56.653Z,97186.13
2022-11-23T02:26:28.344Z,97180.47
2022-11-23T02:29:03.987Z,97190.03
2022-11-23T02:31:32.351Z,97195.31
2022-11-23T02:34:00.327Z,97190.03
2022-11-23T02:36:40.051Z,97198.94
2022-11-23T02:39:11.867Z,97192.75
2022-11-23T02:41:43.731Z,97188.84
2022-11-23T02:44:22.146Z,97184.28
2022-11-23T02:46:51.487Z,97182.63
2022-11-23T02:49:19.448Z,97189.56
2022-11-23T02:51:47.377Z,97193.81
2022-11-23T02:54:15.281Z,97188.53
2022-11-23T02:56:44.600Z,97188.38
2022-11-23T02:59:12.514Z,97187.00
2022-11-23T03:01:41.066Z,97192.00
2022-11-23T03:04:09.644Z,97182.47
2022-11-23T03:06:37.809Z,97191.84
2022-11-23T03:09:05.960Z,97193.53
2022-11-23T03:11:34.307Z,97187.91
2022-11-23T03:14:05.451Z,97186.88
2022-11-23T03:16:42.207Z,97186.25
2022-11-23T03:19:10.527Z,97180.50
2022-11-23T03:21:38.563Z,97187.16
2022-11-23T03:24:08.731Z,97182.63
2022-11-23T03:26:37.762Z,97180.97
2022-11-23T03:29:16.637Z,97180.19
2022-11-23T03:31:44.798Z,97190.47
2022-11-23T03:34:15.589Z,97189.41
2022-11-23T03:36:45.175Z,97189.72
2022-11-23T03:39:14.021Z,97185.03
2022-11-23T03:42:02.197Z,97188.09
2022-11-23T03:44:35.526Z,97185.19
2022-11-23T03:47:03.625Z,97184.59
2022-11-23T03:49:31.886Z,97184.72
2022-11-23T03:52:00.142Z,97181.41
2022-11-23T03:54:29.013Z,97185.03
2022-11-23T03:56:57.040Z,97188.69
2022-11-23T03:59:25.169Z,97182.63
2022-11-23T04:01:55.355Z,97181.56
2022-11-23T04:04:27.715Z,97183.84
2022-11-23T04:07:12.813Z,97179.91
2022-11-23T04:09:47.485Z,97178.97
2022-11-23T04:12:25.990Z,97183.06
2022-11-23T04:14:54.036Z,97178.47
2022-11-23T04:17:23.334Z,97179.72
2022-11-23T04:19:51.387Z,97184.59
2022-11-23T04:22:19.393Z,97186.41
2022-11-23T04:24:48.198Z,97183.84
2022-11-23T04:27:16.114Z,97179.28
2022-11-23T04:29:44.169Z,97178.22
2022-11-23T04:32:12.355Z,97177.88
2022-11-23T04:34:42.039Z,97191.22
2022-11-23T04:37:13.845Z,97193.91
2022-11-23T04:39:43.828Z,97185.34
2022-11-23T04:42:20.790Z,97183.66
2022-11-23T04:45:01.931Z,97183.06
2022-11-23T04:47:31.230Z,97180.44
2022-11-23T04:50:04.701Z,97186.84
2022-11-23T04:52:32.651Z,97185.16
2022-11-23T04:55:00.743Z,97189.53
2022-11-23T04:57:32.205Z,97189.59
2022-11-23T05:00:00.254Z,97188.50
2022-11-23T05:02:29.395Z,97187.16
2022-11-23T05:05:19.231Z,97193.50
2022-11-23T05:07:47.331Z,97190.06
2022-11-23T05:10:17.863Z,97199.78
2022-11-23T05:12:47.385Z,97196.81
2022-11-23T05:15:15.575Z,97190.25
2022-11-23T05:17:45.168Z,97195.31
2022-11-23T05:20:23.393Z,97199.00
2022-11-23T05:22:51.322Z,97198.97
2022-11-23T05:25:22.613Z,97196.66
2022-11-23T05:28:00.993Z,97210.63
2022-11-23T05:30:32.346Z,97203.94
2022-11-23T05:33:02.591Z,97207.03
2022-11-23T05:35:32.833Z,97204.41
2022-11-23T05:38:00.833Z,97206.53
2022-11-23T05:40:29.619Z,97205.16
2022-11-23T05:43:00.856Z,97211.00
2022-11-23T05:45:30.171Z,97215.47
2022-11-23T05:48:00.307Z,97223.34
2022-11-23T05:50:41.570Z,97222.81
2022-11-23T05:53:25.367Z,97220.97
2022-11-23T05:56:01.084Z,97219.66
2022-11-23T05:58:30.981Z,97219.03
2022-11-23T06:01:00.151Z,97216.28
2022-11-23T06:03:31.759Z,97210.47
2022-11-23T06:06:01.945Z,97213.78
2022-11-23T06:08:36.274Z,97224.47
2022-11-23T06:11:05.023Z,97222.72
2022-11-23T06:13:33.999Z,97230.59
2022-11-23T06:16:03.073Z,97235.06
2022-11-23T06:18:41.434Z,97237.44
2022-11-23T06:21:12.241Z,97242.09
2022-11-23T06:23:40.260Z,97250.56
2022-11-23T06:26:08.546Z,97249.03
2022-11-23T06:28:37.220Z,97253.19
2022-11-23T06:31:06.840Z,97245.88
2022-11-23T06:33:36.698Z,97256.53
2022-11-23T06:36:05.586Z,97258.75
2022-11-23T06:38:40.467Z,97262.06
2022-11-23T06:41:13.791Z,97261.34
2022-11-23T06:43:41.822Z,97263.84
2022-11-23T06:46:12.366Z,97260.03
2022-11-23T06:48:44.576Z,97255.28
2022-11-23T06:51:14.374Z,97256.44
2022-11-23T06:53:44.303Z,97250.00
2022-11-23T06:56:14.593Z,97260.03
2022-11-23T06:58:43.773Z,97258.88
2022-11-23T07:01:17.273Z,97258.78
2022-11-23T07:04:00.230Z,97260.97
2022-11-23T07:06:33.017Z,97257.97
2022-11-23T07:09:07.711Z,97259.19
2022-11-23T07:11:49.374Z,97251.75
2022-11-23T07:14:18.094Z,97258.09
2022-11-23T07:16:48.582Z,97263.97
2022-11-23T07:19:16.499Z,97257.78
2022-11-23T07:21:46.278Z,97254.09
2022-11-23T07:24:15.715Z,97263.97
2022-11-23T07:26:43.643Z,97262.22
2022-11-23T07:29:11.884Z,97259.22
2022-11-23T07:31:40.236Z,97256.47
2022-11-23T07:34:09.393Z,97261.16
2022-11-23T07:36:37.501Z,97262.84
2022-11-23T07:39:06.302Z,97256.66
2022-11-23T07:41:35.582Z,97264.41
2022-11-23T07:44:20.400Z,97260.22
2022-11-23T07:46:48.307Z,97253.56
2022-11-23T07:49:16.279Z,97252.84
2022-11-23T07:51:44.290Z,97248.00
2022-11-23T07:54:12.281Z,97248.16
2022-11-23T07:56:41.486Z,97265.75
2022-11-23T07:59:09.448Z,97264.69
2022-11-23T08:01:37.388Z,97255.91
2022-11-23T08:04:05.856Z,97261.19
2022-11-23T08:06:33.859Z,97248.16
2022-11-23T08:09:01.888Z,97251.81
2022-11-23T08:11:29.802Z,97247.88
2022-11-23T08:13:59.125Z,97240.31
2022-11-23T08:16:27.002Z,97236.03
2022-11-23T08:18:54.919Z,97242.13
2022-11-23T08:21:23.278Z,97244.16
2022-11-23T08:23:51.163Z,97226.94
2022-11-23T08:26:19.061Z,97226.53
2022-11-23T08:28:47.250Z,97227.28
2022-11-23T08:31:16.551Z,97230.28
2022-11-23T08:33:44.572Z,97230.59
2022-11-23T08:36:12.499Z,97225.03
2022-11-23T08:38:40.454Z,97229.09
2022-11-23T08:41:08.706Z,97229.25
2022-11-23T08:43:36.675Z,97238.34
2022-11-23T08:46:10.718Z,97246.66
2022-11-23T08:48:40.615Z,97243.81
2022-11-23T08:51:09.066Z,97255.59
2022-11-23T08:53:37.138Z,97252.56
2022-11-23T08:56:07.087Z,97260.00
2022-11-23T08:58:34.962Z,97269.66
2022-11-23T09:01:04.218Z,97267.25
2022-11-23T09:03:32.249Z,97267.25
2022-11-23T09:06:02.144Z,97262.88
2022-11-23T09:08:30.306Z,97264.66
2022-11-23T09:11:01.004Z,97257.72
2022-11-23T09:13:29.369Z,97253.94
2022-11-23T09:16:00.677Z,97255.44
2022-11-23T09:18:30.542Z,97247.28
2022-11-23T09:20:59.236Z,97254.53
2022-11-23T09:23:28.536Z,97252.38
2022-11-23T09:25:59.470Z,97240.91
2022-11-23T09:28:28.514Z,97243.94
2022-11-23T09:30:57.536Z,97253.34
2022-11-23T09:33:26.092Z,97240.16
2022-11-23T09:35:58.784Z,97243.94
2022-11-23T09:38:44.741Z,97240.91
2022-11-23T09:41:31.878Z,97234.09
2022-11-23T09:44:07.629Z,97234.09
2022-11-23T09:46:46.094Z,97236.22
2022-11-23T09:49:16.844Z,97230.44
2022-11-23T09:51:46.351Z,97226.53
2022-11-23T09:54:31.218Z,97220.78
2022-11-23T09:57:01.803Z,97207.28
2022-11-23T09:59:42.026Z,97216.22
2022-11-23T10:02:21.143Z,97210.47
2022-11-23T10:04:49.667Z,97210.19
2022-11-23T10:07:31.506Z,97201.81
2022-11-23T10:10:11.249Z,97194.13
2022-11-23T10:12:47.379Z,97201.69
2022-11-23T10:15:21.558Z,97200.16
2022-11-23T10:18:17.142Z,97205.63
2022-11-23T10:20:56.619Z,97197.31
2022-11-23T10:23:44.706Z,97191.69
2022-11-23T10:26:18.235Z,97202.00
2022-11-23T10:28:47.791Z,97198.50
2022-11-23T10:31:18.102Z,97190.47
2022-11-23T10:33:57.024Z,97182.47
2022-11-23T10:36:24.947Z,97186.81
2022-11-23T10:38:58.139Z,97187.91
2022-11-23T10:41:27.705Z,97188.97
2022-11-23T10:44:05.065Z,97181.25
2022-11-23T10:46:40.142Z,97184.59
2022-11-23T10:49:17.242Z,97190.06
2022-11-23T10:51:56.427Z,97179.28
2022-11-23T10:54:36.385Z,97179.91
2022-11-23T10:57:30.847Z,97184.44
2022-11-23T11:00:00.623Z,97185.50
2022-11-23T11:02:29.329Z,97185.03
2022-11-23T11:05:14.635Z,97189.13
2022-11-23T11:07:42.871Z,97185.34
2022-11-23T11:10:38.894Z,97195.19
2022-11-23T11:13:23.187Z,97190.59
2022-11-23T11:15:56.329Z,97177.88
2022-11-23T11:18:28.858Z,97172.25
2022-11-23T11:20:59.791Z,97165.91
2022-11-23T11:23:29.684Z,97167.50
2022-11-23T11:26:08.174Z,97165.97
2022-11-23T11:28:40.063Z,97162.47
2022-11-23T11:31:26.483Z,97166.88
2022-11-23T11:34:04.266Z,97165.78
2022-11-23T11:36:40.125Z,97170.22
2022-11-23T11:39:19.232Z,97166.63
2022-11-23T11:41:52.528Z,97171.69
2022-11-23T11:44:23.074Z,97164.16
2022-11-23T11:46:57.406Z,97165.81
2022-11-23T11:49:29.849Z,97166.88
2022-11-23T11:52:06.002Z,97170.66
2022-11-23T11:54:41.148Z,97173.06
2022-11-23T11:57:19.187Z,97166.09
2022-11-23T11:59:50.311Z,97172.56
2022-11-23T12:02:25.939Z,97173.28
2022-11-23T12:05:15.124Z,97168.25
2022-11-23T12:07:49.343Z,97171.94
2022-11-23T12:10:20.892Z,97166.16
2022-11-23T12:12:50.187Z,97175.69
2022-11-23T12:15:47.899Z,97173.22
2022-11-23T12:18:35.029Z,97174.22
2022-11-23T12:21:06.321Z,97183.06
2022-11-23T12:23:44.777Z,97181.78
2022-11-23T12:26:20.802Z,97191.56
2022-11-23T12:29:38.426Z,97180.94
2022-11-23T12:32:17.471Z,97174.56
2022-11-23T12:35:07.269Z,97165.34
2022-11-23T12:37:52.829Z,97162.53
2022-11-23T12:40:46.295Z,97165.09
2022-11-23T12:43:19.663Z,97173.94
2022-11-23T12:46:09.161Z,97168.22
2022-11-23T12:48:54.099Z,97170.78
2022-11-23T12:51:34.379Z,97170.84
2022-11-23T12:54:16.700Z,97178.44
2022-11-23T12:57:01.587Z,97178.69
2022-11-23T12:59:42.046Z,97165.22
2022-11-23T13:02:21.170Z,97174.56
2022-11-23T13:05:34.098Z,97176.16
2022-11-23T13:08:20.277Z,97179.31
2022-11-23T13:10:59.667Z,97180.59
2022-11-23T13:13:49.080Z,97189.56
2022-11-23T13:16:54.701Z,97185.41
2022-11-23T13:19:37.544Z,97175.75
2022-11-23T13:22:11.320Z,97178.03
2022-11-23T13:24:41.758Z,97183.56
2022-11-23T13:27:32.677Z,97189.88
2022-11-23T13:30:08.388Z,97195.47
2022-11-23T13:32:47.653Z,97186.63
2022-11-23T13:35:53.234Z,97193.16
2022-11-23T13:38:42.911Z,97195.84
2022-11-23T13:41:53.935Z,97190.22
2022-11-23T13:44:24.352Z,97185.72
2022-11-23T13:47:08.022Z,97176.97
2022-11-23T13:49:41.609Z,97175.03
2022-11-23T13:52:32.905Z,97187.69
2022-11-23T13:55:09.500Z,97197.03
2022-11-23T13:57:42.574Z,97199.00
2022-11-23T14:00:48.767Z,97185.91
2022-11-23T14:03:50.808Z,97189.53
2022-11-23T14:06:26.460Z,97199.00
2022-11-23T14:09:10.607Z,97204.25
2022-11-23T14:11:52.485Z,97194.38
2022-11-23T14:14:24.257Z,97201.88
2022-11-23T14:17:17.218Z,97191.09
2022-11-23T14:20:06.289Z,97190.81
2022-11-23T14:22:52.388Z,97183.28
2022-11-23T14:25:36.532Z,97192.47
2022-11-23T14:28:15.933Z,97192.03
2022-11-23T14:30:56.908Z,97192.13
2022-11-23T14:33:34.154Z,97188.88
2022-11-23T14:36:13.422Z,97192.13
2022-11-23T14:39:11.064Z,97198.03
2022-11-23T14:41:42.577Z,97199.94
2022-11-23T14:44:15.500Z,97199.28
2022-11-23T14:47:01.710Z,97197.41
2022-11-23T14:49:29.956Z,97200.59
2022-11-23T14:51:58.703Z,97204.16
2022-11-23T14:54:29.081Z,97210.25
2022-11-23T14:57:01.613Z,97211.09
2022-11-23T14:59:32.579Z,97213.66
2022-11-23T15:02:03.403Z,97224.38
2022-11-23T15:04:36.886Z,97222.34
2022-11-23T15:07:18.423Z,97218.28
2022-11-23T15:09:52.580Z,97210.09
2022-11-23T15:12:25.630Z,97224.03
2022-11-23T15:14:57.376Z,97224.88
2022-11-23T15:17:25.871Z,97228.88
2022-11-23T15:19:58.818Z,97232.41
2022-11-23T15:22:28.347Z,97242.00
2022-11-23T15:25:06.515Z,97239.63
2022-11-23T15:27:41.382Z,97239.00
2022-11-23T15:30:17.441Z,97241.03
2022-11-23T15:32:45.762Z,97235.16
2022-11-23T15:35:16.518Z,97238.66
2022-11-23T15:37:46.883Z,97229.38
2022-11-23T15:40:16.606Z,97228.78
2022-11-23T15:42:48.170Z,97232.16
2022-11-23T15:45:39.074Z,97216.03
2022-11-23T15:48:13.608Z,97227.88
2022-11-23T15:50:51.922Z,97225.44
2022-11-23T15:53:22.059Z,97227.84
2022-11-23T15:55:51.017Z,97231.84
2022-11-23T15:58:21.962Z,97226.81
2022-11-23T16:00:53.106Z,97229.00
2022-11-23T16:03:34.346Z,97233.13
2022-11-23T16:06:26.212Z,97233.09
2022-11-23T16:08:54.181Z,97239.59
2022-11-23T16:11:31.113Z,97235.28
2022-11-23T16:14:14.657Z,97226.56
2022-11-23T16:16:46.121Z,97231.22
2022-11-23T16:19:28.868Z,97232.06
2022-11-23T16:22:02.549Z,97233.44
2022-11-23T16:24:33.069Z,97234.13
2022-11-23T16:27:01.771Z,97234.53
2022-11-23T16:29:37.323Z,97236.84
2022-11-23T16:32:07.308Z,97242.16
2022-11-23T16:34:35.848Z,97249.59
2022-11-23T16:37:04.629Z,97257.47
2022-11-23T16:39:32.639Z,97254.69
2022-11-23T16:42:00.578Z,97253.72
2022-11-23T16:44:35.175Z,97252.63
2022-11-23T16:47:22.977Z,97242.94
2022-11-23T16:49:51.933Z,97252.19
2022-11-23T16:52:20.830Z,97257.88
2022-11-23T16:54:48.803Z,97257.09
2022-11-23T16:57:21.689Z,97253.16
2022-11-23T16:59:51.354Z,97259.81
2022-11-23T17:02:19.601Z,97261.34
2022-11-23T17:04:47.754Z,97266.19
2022-11-23T17:07:16.924Z,97248.22
2022-11-23T17:09:44.887Z,97253.19
2022-11-23T17:12:17.015Z,97259.00
2022-11-23T17:14:48.023Z,97262.84
2022-11-23T17:17:21.456Z,97265.38
2022-11-23T17:19:50.471Z,97267.94
2022-11-23T17:22:19.337Z,97263.53
2022-11-23T17:24:48.150Z,97272.59
2022-11-23T17:27:17.976Z,97275.34
2022-11-23T17:29:47.264Z,97272.28
2022-11-23T17:32:15.902Z,97279.28
2022-11-23T17:34:45.267Z,97287.00
2022-11-23T17:37:19.934Z,97278.16
2022-11-23T17:39:48.383Z,97277.88
2022-11-23T17:42:16.548Z,97289.81
2022-11-23T17:44:44.623Z,97280.28
2022-11-23T17:47:25.335Z,97275.78
2022-11-23T17:49:54.665Z,97272.13
2022-11-23T17:52:22.725Z,97269.91
2022-11-23T17:54:50.659Z,97275.69
2022-11-23T17:57:21.034Z,97271.09
2022-11-23T17:59:48.993Z,97274.91
2022-11-23T18:02:19.335Z,97275.22
2022-11-23T18:04:47.456Z,97266.22
2022-11-23T18:07:18.702Z,97272.03
2022-11-23T18:09:46.660Z,97271.59
2022-11-23T18:12:14.645Z,97267.19
2022-11-23T18:14:42.668Z,97281.13
2022-11-23T18:17:10.747Z,97281.94
2022-11-23T18:19:38.752Z,97278.75
2022-11-23T18:22:06.746Z,97272.53
2022-11-23T18:24:36.021Z,97276.94
2022-11-23T18:27:04.047Z,97264.53
2022-11-23T18:29:32.265Z,97264.31
2022-11-23T18:32:00.406Z,97265.75
2022-11-23T18:34:28.342Z,97265.50
2022-11-23T18:36:56.276Z,97267.81
2022-11-23T18:39:24.520Z,97268.03
2022-11-23T18:41:53.854Z,97267.13
2022-11-23T18:44:21.720Z,97265.63
2022-11-23T18:46:49.832Z,97263.53
2022-11-23T18:49:17.755Z,97261.69
2022-11-23T18:51:45.809Z,97256.00
2022-11-23T18:54:13.723Z,97261.91
2022-11-23T18:56:41.651Z,97267.69
2022-11-23T18:59:23.959Z,97265.78
2022-11-23T19:01:59.203Z,97266.59
2022-11-23T19:04:27.359Z,97262.63
2022-11-23T19:06:55.361Z,97272.78
2022-11-23T19:09:23.475Z,97272.75
2022-11-23T19:11:51.809Z,97276.50
2022-11-23T19:14:21.076Z,97267.00
2022-11-23T19:16:48.993Z,97273.06
2022-11-23T19:19:18.085Z,97267.50
2022-11-23T19:21:47.128Z,97270.19
2022-11-23T19:24:15.101Z,97269.75
2022-11-23T19:26:43.073Z,97270.94
2022-11-23T19:29:11.138Z,97273.06
2022-11-23T19:31:40.778Z,97276.88
2022-11-23T19:34:10.816Z,97274.34
2022-11-23T19:36:40.715Z,97277.34
2022-11-23T19:39:10.022Z,97278.00
2022-11-23T19:41:38.355Z,97280.34
2022-11-23T19:44:06.857Z,97277.59
2022-11-23T19:46:34.889Z,97280.66
2022-11-23T19:49:04.843Z,97266.72
2022-11-23T19:51:32.793Z,97270.31
2022-11-23T19:54:01.139Z,97273.28
2022-11-23T19:56:30.474Z,97275.97
2022-11-23T19:59:01.174Z,97280.97
2022-11-23T20:01:32.064Z,97282.94
2022-11-23T20:04:08.658Z,97284.63
2022-11-23T20:06:42.399Z,97284.03
2022-11-23T20:09:12.526Z,97281.91
2022-11-23T20:11:44.761Z,97291.13
2022-11-23T20:14:15.481Z,97293.25
2022-11-23T20:16:43.602Z,97289.22
2022-11-23T20:19:11.741Z,97303.31
2022-11-23T20:21:41.006Z,97306.34
2022-11-23T20:24:11.621Z,97296.66
2022-11-23T20:26:41.011Z,97298.59
2022-11-23T20:29:10.097Z,97298.16
2022-11-23T20:31:38.991Z,97300.59
2022-11-23T20:34:10.004Z,97304.06
2022-11-23T20:36:41.671Z,97304.97
2022-11-23T20:39:12.106Z,97310.13
2022-11-23T20:41:40.348Z,97312.72
2022-11-23T20:44:12.746Z,97314.34
2022-11-23T20:49:30.120Z,97316.00
2022-11-23T20:51:59.846Z,97316.47
2022-11-23T20:54:27.974Z,97325.84
2022-11-23T20:56:58.194Z,97322.84
2022-11-23T20:59:26.264Z,97321.88
2022-11-23T21:01:54.219Z,97323.72
2022-11-23T21:04:22.795Z,97328.84
2022-11-23T21:06:50.695Z,97329.09
2022-11-23T21:09:20.113Z,97331.84
2022-11-23T21:12:05.478Z,97328.97
2022-11-23T21:14:34.194Z,97324.06
2022-11-23T21:17:02.684Z,97323.47
2022-11-23T21:19:32.277Z,97317.91
2022-11-23T21:22:03.702Z,97319.66
2022-11-23T21:24:35.103Z,97322.84
2022-11-23T21:27:03.901Z,97324.69
2022-11-23T21:29:32.080Z,97324.72
2022-11-23T21:32:01.527Z,97324.72
2022-11-23T21:34:30.999Z,97325.63
2022-11-23T21:36:59.213Z,97333.38
2022-11-23T21:39:29.952Z,97331.75
2022-11-23T21:41:59.463Z,97337.34
2022-11-23T21:44:27.425Z,97328.91
2022-11-23T21:46:55.472Z,97320.09
2022-11-23T21:49:23.430Z,97325.25
2022-11-23T21:51:51.377Z,97326.75
2022-11-23T21:54:19.323Z,97333.28
2022-11-23T21:56:48.584Z,97328.41
2022-11-23T21:59:17.919Z,97329.81
2022-11-23T22:01:45.991Z,97336.47
2022-11-23T22:04:15.828Z,97333.88
2022-11-23T22:06:45.545Z,97322.50
2022-11-23T22:09:14.566Z,97323.72
2022-11-23T22:11:44.061Z,97331.13
2022-11-23T22:14:13.954Z,97325.09
2022-11-23T22:16:45.004Z,97327.53
2022-11-23T22:19:14.278Z,97331.03
2022-11-23T22:21:43.983Z,97325.41
2022-11-23T22:24:13.701Z,97318.41
2022-11-23T22:26:41.784Z,97323.72
2022-11-23T22:29:10.810Z,97320.22
2022-11-23T22:31:39.560Z,97322.38
2022-11-23T22:34:12.481Z,97321.13
2022-11-23T22:36:40.901Z,97323.88
2022-11-23T22:39:10.009Z,97321.41
2022-11-23T22:41:38.374Z,97326.28
2022-11-23T22:44:08.199Z,97329.47
2022-11-23T22:46:36.861Z,97319.94
2022-11-23T22:49:05.315Z,97321.28
2022-11-23T22:51:34.987Z,97321.75
2022-11-23T22:54:03.482Z,97326.63
2022-11-23T22:56:32.464Z,97325.41
2022-11-23T22:59:00.546Z,97323.59
2022-11-23T23:01:30.827Z,97319.75
2022-11-23T23:04:01.429Z,97319.44
2022-11-23T23:06:31.561Z,97316.13
2022-11-23T23:09:02.772Z,97315.97
2022-11-23T23:11:32.735Z,97320.50
2022-11-23T23:14:01.270Z,97322.19
2022-11-23T23:16:30.187Z,97318.53
2022-11-23T23:18:59.435Z,97317.91
2022-11-23T23:21:28.999Z,97313.06
2022-11-23T23:23:59.248Z,97321.09
2022-11-23T23:26:29.292Z,97315.22
2022-11-23T23:28:58.164Z,97305.69
2022-11-23T23:31:26.554Z,97306.84
2022-11-23T23:33:54.807Z,97312.78
2022-11-23T23:36:24.549Z,97306.16
2022-11-23T23:38:53.002Z,97315.06
2022-11-23T23:41:21.056Z,97307.47
2022-11-23T23:43:50.572Z,97303.09
2022-11-23T23:46:18.669Z,97310.25
2022-11-23T23:48:46.727Z,97310.53
2022-11-23T23:51:16.298Z,97310.09
2022-11-23T23:53:45.385Z,97314.50
2022-11-23T23:56:15.559Z,97313.13
2022-11-23T23:58:43.720Z,97308.88
